Terminal Aerodrome Forecast
Issued by NWS

Home | Current Version | Previous Version | Text Only | Print | Product List | Glossary On
Versions: 1 2 3 4 5 6 7 8 9 10 11 12 13 14 15 16 17
774
FTUS41 KCAR 291120
TAFBHB
TAF
KBHB 291120Z 2912/3012 22004KT P6SM SCT250
     FM292200 22005KT P6SM BKN100
     FM300500 21008KT 4SM -SHRA BR OVC015
     FM300700 20008KT 2SM -SHRA BR OVC004=

USA.gov is the U.S. government's official web portal to all federal, state and local government web resources and services.